createdAt,value
2022-08-16T00:03:47.205Z,993.67
2022-08-16T00:08:47.137Z,993.66
2022-08-16T00:13:53.843Z,993.83
2022-08-16T00:18:47.995Z,993.77
2022-08-16T00:23:46.955Z,993.62
2022-08-16T00:28:46.874Z,993.71
2022-08-16T00:33:50.174Z,993.82
2022-08-16T00:38:46.738Z,993.74
2022-08-16T00:43:46.668Z,993.82
2022-08-16T00:48:46.598Z,993.84
2022-08-16T00:53:46.549Z,993.73
2022-08-16T00:58:46.458Z,993.79
2022-08-16T01:03:46.399Z,993.75
2022-08-16T01:08:46.337Z,993.70
2022-08-16T01:13:46.282Z,993.88
2022-08-16T01:18:46.210Z,993.90
2022-08-16T01:24:00.790Z,993.94
2022-08-16T01:28:47.082Z,994.00
2022-08-16T01:33:46.002Z,993.85
2022-08-16T01:38:49.227Z,993.89
2022-08-16T01:43:46.863Z,994.01
2022-08-16T01:48:46.803Z,994.03
2022-08-16T01:53:55.209Z,994.14
2022-08-16T01:58:48.081Z,993.95
2022-08-16T02:03:45.604Z,994.02
2022-08-16T02:08:46.537Z,994.00
2022-08-16T02:13:45.485Z,994.03
2022-08-16T02:18:46.405Z,993.97
2022-08-16T02:23:45.344Z,993.95
2022-08-16T02:28:47.107Z,993.90
2022-08-16T02:33:50.701Z,993.89
2022-08-16T02:38:46.155Z,993.99
2022-08-16T02:43:45.108Z,994.01
2022-08-16T02:48:49.104Z,993.97
2022-08-16T02:53:45.076Z,994.11
2022-08-16T02:58:45.002Z,994.11
2022-08-16T03:04:29.993Z,994.10
2022-08-16T03:08:52.026Z,994.24
2022-08-16T03:13:45.701Z,994.30
2022-08-16T03:18:44.667Z,994.41
2022-08-16T03:23:44.626Z,994.36
2022-08-16T03:28:44.494Z,994.41
2022-08-16T03:33:44.442Z,994.33
2022-08-16T03:38:44.383Z,994.37
2022-08-16T03:43:51.241Z,994.41
2022-08-16T03:48:45.569Z,994.39
2022-08-16T03:53:44.179Z,994.45
2022-08-16T03:58:45.144Z,994.40
2022-08-16T04:03:44.251Z,994.55
2022-08-16T04:08:43.983Z,994.65
2022-08-16T04:14:01.748Z,994.59
2022-08-16T04:18:44.896Z,994.56
2022-08-16T04:23:43.830Z,994.62
2022-08-16T04:28:53.368Z,994.78
2022-08-16T04:33:50.591Z,994.79
2022-08-16T04:38:44.617Z,994.96
2022-08-16T04:43:43.871Z,995.04
2022-08-16T04:48:43.521Z,994.97
2022-08-16T04:53:43.408Z,995.11
2022-08-16T04:58:45.484Z,995.28
2022-08-16T05:03:59.705Z,995.20
2022-08-16T05:08:47.127Z,995.16
2022-08-16T05:13:43.132Z,995.27
2022-08-16T05:18:43.075Z,995.31
2022-08-16T05:23:51.467Z,995.39
2022-08-16T05:28:43.945Z,995.37
2022-08-16T05:33:42.886Z,995.40
2022-08-16T05:38:42.827Z,995.34
2022-08-16T05:43:43.692Z,995.48
2022-08-16T05:48:42.692Z,995.51
2022-08-16T05:53:42.632Z,995.54
2022-08-16T05:58:42.562Z,995.44
2022-08-16T06:03:42.511Z,995.45
2022-08-16T06:08:45.017Z,995.42
2022-08-16T06:13:42.480Z,995.48
2022-08-16T06:18:42.326Z,995.52
2022-08-16T06:23:42.278Z,995.46
2022-08-16T06:28:42.211Z,995.54
2022-08-16T06:33:44.731Z,995.50
2022-08-16T06:38:55.728Z,995.52
2022-08-16T06:43:43.311Z,995.59
2022-08-16T06:48:42.918Z,995.43
2022-08-16T06:53:41.931Z,995.62
2022-08-16T06:58:41.868Z,995.64
2022-08-16T07:03:55.346Z,995.77
2022-08-16T07:08:42.989Z,995.70
2022-08-16T07:14:23.814Z,995.72
2022-08-16T07:18:59.317Z,995.78
2022-08-16T07:23:42.586Z,995.67
2022-08-16T07:28:41.536Z,995.77
2022-08-16T07:33:52.156Z,995.78
2022-08-16T07:38:42.404Z,995.79
2022-08-16T07:43:41.636Z,995.74
2022-08-16T07:48:41.297Z,995.90
2022-08-16T07:53:43.711Z,995.90
2022-08-16T07:58:41.188Z,995.79
2022-08-16T08:03:44.953Z,995.85
2022-08-16T08:08:50.583Z,995.88
2022-08-16T08:13:43.050Z,995.87
2022-08-16T08:18:41.020Z,995.82
2022-08-16T08:23:42.518Z,995.96
2022-08-16T08:28:40.824Z,995.96
2022-08-16T08:33:43.762Z,996.02
2022-08-16T08:38:44.888Z,995.96
2022-08-16T08:43:41.898Z,995.99
2022-08-16T08:48:43.934Z,995.89
2022-08-16T08:53:40.546Z,995.94
2022-08-16T08:58:40.467Z,995.97
2022-08-16T09:03:41.419Z,995.85
2022-08-16T09:08:40.409Z,995.68
2022-08-16T09:13:47.362Z,995.65
2022-08-16T09:18:41.274Z,995.73
2022-08-16T09:23:40.264Z,995.76
2022-08-16T09:29:15.089Z,995.77
2022-08-16T09:33:41.049Z,995.74
2022-08-16T09:38:40.976Z,995.66
2022-08-16T09:44:00.689Z,995.67
2022-08-16T09:48:44.613Z,995.67
2022-08-16T09:53:40.827Z,995.57
2022-08-16T09:59:05.590Z,995.54
2022-08-16T10:04:02.313Z,995.58
2022-08-16T10:09:04.341Z,995.56
2022-08-16T10:13:40.700Z,995.63
2022-08-16T10:18:56.629Z,995.64
2022-08-16T10:23:40.434Z,995.50
2022-08-16T10:28:39.923Z,995.62
2022-08-16T10:33:40.248Z,995.60
2022-08-16T10:38:39.245Z,995.64
2022-08-16T10:43:39.175Z,995.56
2022-08-16T10:48:39.133Z,995.62
2022-08-16T10:53:40.035Z,995.61
2022-08-16T10:58:38.989Z,995.52
2022-08-16T11:03:42.469Z,995.63
2022-08-16T11:08:43.261Z,995.54
2022-08-16T11:18:48.672Z,995.63
2022-08-16T11:23:39.639Z,995.58
2022-08-16T11:33:54.968Z,995.48
2022-08-16T11:38:51.925Z,995.43
2022-08-16T11:43:39.387Z,995.45
2022-08-16T11:48:38.342Z,995.47
2022-08-16T11:53:38.276Z,995.41
2022-08-16T11:58:38.214Z,995.44
2022-08-16T12:03:38.240Z,995.41
2022-08-16T12:08:38.063Z,995.37
2022-08-16T12:13:38.024Z,995.33
2022-08-16T12:18:37.938Z,995.29
2022-08-16T12:23:37.900Z,995.28
2022-08-16T12:28:55.203Z,995.25
2022-08-16T12:33:44.554Z,995.22
2022-08-16T12:38:47.921Z,995.07
2022-08-16T12:43:42.281Z,995.20
2022-08-16T12:48:38.554Z,995.15
2022-08-16T12:53:39.904Z,995.15
2022-08-16T12:58:49.917Z,995.12
2022-08-16T13:03:40.546Z,995.11
2022-08-16T13:08:37.316Z,995.02
2022-08-16T13:13:37.248Z,995.01
2022-08-16T13:18:37.205Z,995.03
2022-08-16T13:23:43.619Z,995.12
2022-08-16T13:28:38.077Z,995.10
2022-08-16T13:33:37.053Z,995.12
2022-08-16T13:38:37.723Z,994.97
2022-08-16T13:43:36.895Z,994.94
2022-08-16T13:48:42.598Z,995.02
2022-08-16T13:53:37.756Z,994.98
2022-08-16T13:58:48.176Z,994.97
2022-08-16T14:03:39.297Z,994.94
2022-08-16T14:08:36.540Z,994.84
2022-08-16T14:13:37.480Z,994.82
2022-08-16T14:18:36.418Z,994.82
2022-08-16T14:23:36.370Z,994.79
2022-08-16T14:28:37.054Z,994.81
2022-08-16T14:33:36.236Z,994.83
2022-08-16T14:38:39.385Z,994.85
2022-08-16T14:43:36.271Z,994.80
2022-08-16T14:48:36.132Z,994.75
2022-08-16T14:53:35.988Z,994.78
2022-08-16T14:58:38.097Z,994.76
2022-08-16T15:03:37.567Z,994.63
2022-08-16T15:08:37.198Z,994.73
2022-08-16T15:13:35.790Z,994.73
2022-08-16T15:18:35.675Z,994.67
2022-08-16T15:23:35.606Z,994.81
2022-08-16T15:28:35.988Z,994.83
2022-08-16T15:33:35.507Z,994.84
2022-08-16T15:39:03.022Z,994.83
2022-08-16T15:43:40.009Z,994.88
2022-08-16T15:48:35.280Z,994.81
2022-08-16T15:53:37.585Z,994.86
2022-08-16T15:58:38.461Z,994.91
2022-08-16T16:03:35.112Z,994.89
2022-08-16T16:08:35.074Z,994.87
2022-08-16T16:13:34.974Z,994.91
2022-08-16T16:18:34.906Z,995.03
2022-08-16T16:23:34.830Z,995.01
2022-08-16T16:28:46.032Z,994.86
2022-08-16T16:33:35.887Z,994.92
2022-08-16T16:38:35.070Z,994.87
2022-08-16T16:43:34.598Z,994.89
2022-08-16T16:48:35.441Z,994.90
2022-08-16T16:53:37.545Z,994.90
2022-08-16T16:58:36.650Z,994.95
2022-08-16T17:03:34.324Z,995.07
2022-08-16T17:08:34.265Z,995.07
2022-08-16T17:13:34.206Z,995.06
2022-08-16T17:19:15.317Z,995.14
2022-08-16T17:23:57.584Z,995.10
2022-08-16T17:28:59.513Z,995.11
2022-08-16T17:33:37.034Z,995.14
2022-08-16T17:38:43.811Z,995.10
2022-08-16T17:43:34.874Z,995.24
2022-08-16T17:48:33.789Z,995.24
2022-08-16T17:53:33.724Z,995.33
2022-08-16T17:58:33.716Z,995.32
2022-08-16T18:04:02.555Z,995.47
2022-08-16T18:08:34.568Z,995.60
2022-08-16T18:13:33.448Z,995.58
2022-08-16T18:18:33.400Z,995.64
2022-08-16T18:23:33.323Z,995.69
2022-08-16T18:28:33.325Z,995.70
2022-08-16T18:33:33.224Z,995.67
2022-08-16T18:38:36.338Z,995.79
2022-08-16T18:44:22.482Z,995.87
2022-08-16T18:48:34.015Z,995.94
2022-08-16T18:53:32.925Z,996.00
2022-08-16T18:58:32.906Z,996.00
2022-08-16T19:03:32.807Z,996.03
2022-08-16T19:08:32.719Z,996.12
2022-08-16T19:13:32.652Z,996.08
2022-08-16T19:18:36.547Z,996.22
2022-08-16T19:23:32.541Z,996.17
2022-08-16T19:28:49.620Z,996.30
2022-08-16T19:33:33.393Z,996.28
2022-08-16T19:38:32.336Z,996.37
2022-08-16T19:43:32.525Z,996.40
2022-08-16T19:48:32.218Z,996.56
2022-08-16T19:53:32.136Z,996.52
2022-08-16T19:58:32.114Z,996.58
2022-08-16T20:03:32.075Z,996.65
2022-08-16T20:08:31.949Z,996.68
2022-08-16T20:13:31.869Z,996.70
2022-08-16T20:18:31.949Z,996.73
2022-08-16T20:23:31.758Z,996.79
2022-08-16T20:28:40.642Z,996.83
2022-08-16T20:33:32.657Z,996.87
2022-08-16T20:38:31.663Z,996.84
2022-08-16T20:43:31.497Z,996.79
2022-08-16T20:48:31.666Z,996.81
2022-08-16T20:53:31.375Z,996.88
2022-08-16T20:58:31.287Z,996.87
2022-08-16T21:03:31.235Z,996.85
2022-08-16T21:08:52.754Z,996.87
2022-08-16T21:13:32.117Z,996.82
2022-08-16T21:18:31.041Z,996.81
2022-08-16T21:23:30.981Z,996.82
2022-08-16T21:28:40.758Z,996.89
2022-08-16T21:33:31.856Z,996.88
2022-08-16T21:38:31.290Z,996.99
2022-08-16T21:43:30.716Z,996.98
2022-08-16T21:48:33.772Z,996.94
2022-08-16T21:53:31.754Z,996.93
2022-08-16T21:58:30.518Z,996.88
2022-08-16T22:03:30.457Z,996.98
2022-08-16T22:08:30.408Z,996.98
2022-08-16T22:13:30.384Z,997.01
2022-08-16T22:18:30.259Z,997.03
2022-08-16T22:23:30.190Z,997.02
2022-08-16T22:28:30.120Z,997.13
2022-08-16T22:33:30.072Z,997.12
2022-08-16T22:38:55.084Z,997.13
2022-08-16T22:43:30.935Z,997.15
2022-08-16T22:48:29.845Z,997.17
2022-08-16T22:53:29.804Z,997.14
2022-08-16T22:58:36.190Z,997.24
2022-08-16T23:03:30.656Z,997.17
2022-08-16T23:08:38.467Z,997.12
2022-08-16T23:13:30.526Z,997.13
2022-08-16T23:18:29.449Z,997.08
2022-08-16T23:23:29.389Z,997.12
2022-08-16T23:28:29.328Z,997.09
2022-08-16T23:33:29.259Z,997.03
2022-08-16T23:38:37.794Z,997.01
2022-08-16T23:43:30.152Z,997.01
2022-08-16T23:48:29.084Z,996.92
2022-08-16T23:53:29.022Z,996.93
2022-08-16T23:58:28.971Z,996.91
